createdAt,value
2023-04-02T00:00:11.025Z,97767.84
2023-04-02T00:02:58.712Z,97764.78
2023-04-02T00:05:30.211Z,97770.59
2023-04-02T00:08:01.113Z,97773.34
2023-04-02T00:10:37.985Z,97776.09
2023-04-02T00:13:23.542Z,97779.66
2023-04-02T00:15:57.853Z,97773.66
2023-04-02T00:18:27.519Z,97768.81
2023-04-02T00:21:09.453Z,97769.78
2023-04-02T00:23:40.675Z,97772.84
2023-04-02T00:26:33.108Z,97776.75
2023-04-02T00:29:04.126Z,97775.44
2023-04-02T00:31:34.792Z,97778.03
2023-04-02T00:34:04.924Z,97770.44
2023-04-02T00:36:35.300Z,97765.56
2023-04-02T00:39:12.809Z,97767.66
2023-04-02T00:41:47.250Z,97766.69
2023-04-02T00:44:21.636Z,97767.97
2023-04-02T00:46:50.961Z,97766.03
2023-04-02T00:49:31.692Z,97776.69
2023-04-02T00:52:10.344Z,97776.50
2023-04-02T00:54:49.953Z,97776.84
2023-04-02T00:57:25.559Z,97771.84
2023-04-02T01:00:21.851Z,97766.00
2023-04-02T01:03:17.287Z,97762.44
2023-04-02T01:05:57.837Z,97760.53
2023-04-02T01:08:52.946Z,97763.44
2023-04-02T01:11:58.568Z,97770.22
2023-04-02T01:14:49.799Z,97758.09
2023-04-02T01:17:38.433Z,97759.25
2023-04-02T01:20:30.075Z,97759.22
2023-04-02T01:23:08.081Z,97755.66
2023-04-02T01:25:38.410Z,97761.47
2023-04-02T01:28:37.096Z,97761.00
2023-04-02T01:31:05.289Z,97758.88
2023-04-02T01:33:35.400Z,97769.03
2023-04-02T01:36:16.306Z,97764.66
2023-04-02T01:39:15.319Z,97770.31
2023-04-02T01:41:53.569Z,97772.88
2023-04-02T01:44:36.374Z,97774.66
2023-04-02T01:47:11.285Z,97779.66
2023-04-02T01:49:40.445Z,97779.50
2023-04-02T01:52:08.294Z,97782.72
2023-04-02T01:54:37.942Z,97785.13
2023-04-02T01:57:06.033Z,97778.88
2023-04-02T01:59:33.665Z,97781.13
2023-04-02T02:02:09.461Z,97781.47
2023-04-02T02:04:40.968Z,97782.13
2023-04-02T02:07:20.636Z,97777.47
2023-04-02T02:09:52.152Z,97788.66
2023-04-02T02:12:20.007Z,97789.81
2023-04-02T02:14:52.358Z,97794.81
2023-04-02T02:17:34.422Z,97795.28
2023-04-02T02:20:11.066Z,97810.56
2023-04-02T02:22:45.017Z,97806.09
2023-04-02T02:25:20.818Z,97815.25
2023-04-02T02:28:20.474Z,97815.75
2023-04-02T02:30:57.154Z,97817.97
2023-04-02T02:33:32.243Z,97806.50
2023-04-02T02:36:28.882Z,97824.56
2023-04-02T02:39:22.174Z,97813.44
2023-04-02T02:41:57.377Z,97820.66
2023-04-02T02:44:36.417Z,97826.34
2023-04-02T02:47:16.014Z,97828.78
2023-04-02T02:49:47.801Z,97825.22
2023-04-02T02:52:27.836Z,97836.19
2023-04-02T02:55:17.871Z,97840.25
2023-04-02T02:58:23.137Z,97834.94
2023-04-02T03:01:03.283Z,97830.41
2023-04-02T03:03:34.601Z,97823.22
2023-04-02T03:06:10.250Z,97820.66
2023-04-02T03:08:54.348Z,97825.72
2023-04-02T03:11:43.519Z,97828.84
2023-04-02T03:14:40.066Z,97834.31
2023-04-02T03:17:27.145Z,97832.03
2023-04-02T03:20:33.983Z,97835.59
2023-04-02T03:23:23.493Z,97825.13
2023-04-02T03:26:01.034Z,97826.94
2023-04-02T03:28:43.194Z,97832.00
2023-04-02T03:31:24.084Z,97827.34
2023-04-02T03:33:59.333Z,97821.72
2023-04-02T03:36:43.656Z,97823.84
2023-04-02T03:39:25.683Z,97812.81
2023-04-02T03:42:07.971Z,97822.88
2023-04-02T03:44:58.669Z,97815.13
2023-04-02T03:47:37.945Z,97830.16
2023-04-02T03:50:44.053Z,97839.72
2023-04-02T03:53:12.956Z,97848.91
2023-04-02T03:55:42.819Z,97843.09
2023-04-02T03:58:48.366Z,97853.13
2023-04-02T04:01:26.487Z,97859.94
2023-04-02T04:04:02.046Z,97867.06
2023-04-02T04:06:33.596Z,97861.22
2023-04-02T04:09:28.890Z,97862.53
2023-04-02T04:12:28.509Z,97866.25
2023-04-02T04:15:08.409Z,97866.41
2023-04-02T04:18:04.362Z,97861.53
2023-04-02T04:20:50.464Z,97868.97
2023-04-02T04:23:30.360Z,97878.84
2023-04-02T04:26:05.631Z,97880.13
2023-04-02T04:28:49.217Z,97889.25
2023-04-02T04:31:30.934Z,97897.97
2023-04-02T04:34:05.733Z,97894.59
2023-04-02T04:36:48.022Z,97902.50
2023-04-02T04:39:34.900Z,97904.63
2023-04-02T04:42:06.586Z,97903.97
2023-04-02T04:44:53.378Z,97894.59
2023-04-02T04:47:51.711Z,97898.00
2023-04-02T04:50:25.546Z,97899.75
2023-04-02T04:52:53.292Z,97897.81
2023-04-02T04:55:39.087Z,97900.88
2023-04-02T04:58:25.109Z,97903.84
2023-04-02T05:01:05.767Z,97901.91
2023-04-02T05:03:41.579Z,97900.06
2023-04-02T05:06:23.488Z,97902.16
2023-04-02T05:08:59.294Z,97897.38
2023-04-02T05:11:34.590Z,97908.56
2023-04-02T05:14:22.127Z,97906.25
2023-04-02T05:17:07.636Z,97911.94
2023-04-02T05:20:10.872Z,97909.38
2023-04-02T05:22:51.263Z,97914.41
2023-04-02T05:25:24.942Z,97907.84
2023-04-02T05:28:29.969Z,97904.34
2023-04-02T05:31:12.500Z,97911.16
2023-04-02T05:33:47.427Z,97906.84
2023-04-02T05:36:46.785Z,97923.75
2023-04-02T05:39:22.915Z,97927.16
2023-04-02T05:42:04.433Z,97921.69
2023-04-02T05:45:24.187Z,97919.81
2023-04-02T05:48:01.625Z,97916.22
2023-04-02T05:50:43.091Z,97926.22
2023-04-02T05:53:45.295Z,97921.13
2023-04-02T05:56:32.098Z,97924.66
2023-04-02T05:59:47.649Z,97928.25
2023-04-02T06:02:56.529Z,97926.63
2023-04-02T06:05:34.085Z,97941.56
2023-04-02T06:08:11.222Z,97935.50
2023-04-02T06:10:53.848Z,97917.19
2023-04-02T06:13:25.257Z,97918.00
2023-04-02T06:15:53.437Z,97913.00
2023-04-02T06:18:32.864Z,97908.25
2023-04-02T06:21:03.742Z,97914.91
2023-04-02T06:23:50.076Z,97911.53
2023-04-02T06:26:41.774Z,97903.28
2023-04-02T06:29:30.032Z,97898.84
2023-04-02T06:32:02.081Z,97901.69
2023-04-02T06:34:32.565Z,97897.00
2023-04-02T06:37:33.756Z,97889.28
2023-04-02T06:40:21.484Z,97895.63
2023-04-02T06:42:56.413Z,97893.84
2023-04-02T06:45:43.338Z,97890.88
2023-04-02T06:48:31.329Z,97880.91
2023-04-02T06:51:08.330Z,97897.59
2023-04-02T06:53:44.211Z,97889.09
2023-04-02T06:56:43.244Z,97886.19
2023-04-02T06:59:15.794Z,97898.88
2023-04-02T07:01:57.413Z,97895.25
2023-04-02T07:04:26.264Z,97896.31
2023-04-02T07:06:54.715Z,97893.09
2023-04-02T07:09:26.006Z,97890.00
2023-04-02T07:11:56.521Z,97898.94
2023-04-02T07:14:23.971Z,97906.75
2023-04-02T07:16:51.797Z,97919.75
2023-04-02T07:19:21.848Z,97925.94
2023-04-02T07:21:52.967Z,97930.47
2023-04-02T07:24:22.155Z,97931.50
2023-04-02T07:26:49.557Z,97935.81
2023-04-02T07:29:17.769Z,97926.03
2023-04-02T07:31:45.273Z,97929.94
2023-04-02T07:34:12.714Z,97934.19
2023-04-02T07:36:40.442Z,97924.13
2023-04-02T07:39:07.820Z,97926.81
2023-04-02T07:41:52.207Z,97929.84
2023-04-02T07:44:19.877Z,97930.63
2023-04-02T07:46:47.319Z,97927.56
2023-04-02T07:49:14.776Z,97937.09
2023-04-02T07:51:42.254Z,97938.06
2023-04-02T07:54:10.421Z,97941.53
2023-04-02T07:56:38.661Z,97939.16
2023-04-02T07:59:06.229Z,97943.38
2023-04-02T08:01:35.569Z,97933.38
2023-04-02T08:04:05.331Z,97938.28
2023-04-02T08:06:32.764Z,97930.63
2023-04-02T08:09:00.748Z,97927.97
2023-04-02T08:11:29.659Z,97922.78
2023-04-02T08:13:58.641Z,97943.09
2023-04-02T08:16:26.370Z,97935.00
2023-04-02T08:18:53.791Z,97912.00
2023-04-02T08:21:21.307Z,97922.25
2023-04-02T08:23:48.695Z,97911.38
2023-04-02T08:26:19.264Z,97916.91
2023-04-02T08:28:46.795Z,97931.28
2023-04-02T08:31:14.373Z,97923.69
2023-04-02T08:33:41.789Z,97919.53
2023-04-02T08:36:17.666Z,97919.81
2023-04-02T08:38:46.201Z,97919.38
2023-04-02T08:41:27.933Z,97929.16
2023-04-02T08:44:33.596Z,97911.72
2023-04-02T08:47:06.596Z,97922.41
2023-04-02T08:49:43.057Z,97921.81
2023-04-02T08:52:28.522Z,97916.41
2023-04-02T08:54:58.072Z,97908.88
2023-04-02T08:58:25.794Z,97917.44
2023-04-02T09:00:55.879Z,97912.88
2023-04-02T09:03:36.731Z,97914.28
2023-04-02T09:06:07.740Z,97908.38
2023-04-02T09:08:35.895Z,97908.84
2023-04-02T09:11:21.512Z,97913.88
2023-04-02T09:14:03.459Z,97921.31
2023-04-02T09:16:58.651Z,97909.13
2023-04-02T09:20:00.499Z,97909.63
2023-04-02T09:22:31.802Z,97915.34
2023-04-02T09:25:05.388Z,97919.28
2023-04-02T09:27:35.997Z,97914.13
2023-04-02T09:30:41.485Z,97912.31
2023-04-02T09:33:09.630Z,97923.59
2023-04-02T09:36:03.677Z,97914.97
2023-04-02T09:38:32.877Z,97935.19
2023-04-02T09:41:19.938Z,97929.72
2023-04-02T09:43:47.341Z,97930.84
2023-04-02T09:46:25.910Z,97931.44
2023-04-02T09:49:01.409Z,97937.78
2023-04-02T09:51:35.031Z,97930.41
2023-04-02T09:54:02.416Z,97932.44
2023-04-02T09:56:39.398Z,97933.28
2023-04-02T09:59:13.443Z,97943.22
2023-04-02T10:01:47.930Z,97941.75
2023-04-02T10:04:48.125Z,97935.38
2023-04-02T10:07:43.919Z,97939.16
2023-04-02T10:10:52.820Z,97947.19
2023-04-02T10:13:49.623Z,97934.19
2023-04-02T10:16:28.002Z,97918.22
2023-04-02T10:19:07.155Z,97923.78
2023-04-02T10:21:38.406Z,97923.03
2023-04-02T10:24:17.777Z,97922.75
2023-04-02T10:27:34.298Z,97920.03
2023-04-02T10:30:16.902Z,97926.44
2023-04-02T10:32:57.613Z,97930.75
2023-04-02T10:36:02.599Z,97941.81
2023-04-02T10:38:42.692Z,97941.91
2023-04-02T10:41:46.792Z,97941.56
2023-04-02T10:44:40.551Z,97933.16
2023-04-02T10:47:33.101Z,97933.69
2023-04-02T10:50:28.091Z,97936.34
2023-04-02T10:53:17.024Z,97929.44
2023-04-02T10:55:51.887Z,97929.44
2023-04-02T10:58:26.275Z,97937.63
2023-04-02T11:01:13.425Z,97912.59
2023-04-02T11:03:53.094Z,97913.06
2023-04-02T11:06:31.186Z,97928.09
2023-04-02T11:09:05.007Z,97921.44
2023-04-02T11:11:48.995Z,97935.97
2023-04-02T11:14:25.976Z,97926.81
2023-04-02T11:16:56.767Z,97933.31
2023-04-02T11:19:32.633Z,97942.03
2023-04-02T11:22:06.060Z,97937.22
2023-04-02T11:24:45.359Z,97945.66
2023-04-02T11:27:14.615Z,97947.13
2023-04-02T11:30:14.001Z,97936.84
2023-04-02T11:32:44.154Z,97936.91
2023-04-02T11:35:27.241Z,97941.41
2023-04-02T11:38:17.995Z,97952.31
2023-04-02T11:40:58.478Z,97950.09
2023-04-02T11:43:35.367Z,97945.22
2023-04-02T11:46:34.171Z,97936.13
2023-04-02T11:49:56.432Z,97933.13
2023-04-02T11:52:31.051Z,97923.34
2023-04-02T11:55:24.513Z,97930.50
2023-04-02T11:58:17.092Z,97918.03
2023-04-02T12:01:07.989Z,97925.53
2023-04-02T12:04:22.578Z,97930.56
2023-04-02T12:07:08.150Z,97934.06
2023-04-02T12:09:51.047Z,97938.97
2023-04-02T12:12:26.485Z,97938.97
2023-04-02T12:14:57.582Z,97935.63
2023-04-02T12:17:38.893Z,97926.28
2023-04-02T12:20:09.786Z,97932.06
2023-04-02T12:22:50.764Z,97936.19
2023-04-02T12:25:22.067Z,97919.28
2023-04-02T12:28:14.346Z,97920.78
2023-04-02T12:30:42.043Z,97917.56
2023-04-02T12:33:30.648Z,97921.16
2023-04-02T12:36:02.873Z,97911.41
2023-04-02T12:38:36.887Z,97926.66
2023-04-02T12:41:18.744Z,97913.75
2023-04-02T12:43:46.221Z,97912.59
2023-04-02T12:46:15.112Z,97905.31
2023-04-02T12:48:42.845Z,97911.63
2023-04-02T12:51:10.775Z,97914.16
2023-04-02T12:53:41.390Z,97909.97
2023-04-02T12:56:24.163Z,97914.41
2023-04-02T12:59:00.684Z,97906.38
2023-04-02T13:01:32.095Z,97911.53
2023-04-02T13:04:15.203Z,97903.25
2023-04-02T13:07:00.668Z,97903.88
2023-04-02T13:09:47.696Z,97905.63
2023-04-02T13:12:35.527Z,97902.09
2023-04-02T13:15:16.928Z,97896.94
2023-04-02T13:18:21.664Z,97887.09
2023-04-02T13:21:23.636Z,97895.63
2023-04-02T13:23:51.208Z,97898.97
2023-04-02T13:26:24.350Z,97904.72
2023-04-02T13:29:27.524Z,97903.66
2023-04-02T13:32:00.552Z,97910.16
2023-04-02T13:34:29.439Z,97916.00
2023-04-02T13:36:59.791Z,97911.75
2023-04-02T13:39:27.687Z,97908.13
2023-04-02T13:42:00.498Z,97911.66
2023-04-02T13:44:31.669Z,97915.59
2023-04-02T13:46:59.852Z,97909.63
2023-04-02T13:49:28.683Z,97918.34
2023-04-02T13:52:05.595Z,97913.31
2023-04-02T13:54:59.853Z,97899.78
2023-04-02T13:57:27.276Z,97907.47
2023-04-02T13:59:54.837Z,97899.31
2023-04-02T14:02:25.756Z,97898.44
2023-04-02T14:05:14.700Z,97895.72
2023-04-02T14:08:03.814Z,97892.19
2023-04-02T14:11:01.835Z,97893.22
2023-04-02T14:14:06.687Z,97878.34
2023-04-02T14:17:01.845Z,97877.88
2023-04-02T14:20:14.045Z,97866.25
2023-04-02T14:23:08.371Z,97863.31
2023-04-02T14:25:44.217Z,97876.50
2023-04-02T14:28:38.020Z,97868.63
2023-04-02T14:31:18.234Z,97869.66
2023-04-02T14:34:12.112Z,97892.81
2023-04-02T14:36:56.445Z,97890.22
2023-04-02T14:39:57.468Z,97895.91
2023-04-02T14:42:34.203Z,97889.19
2023-04-02T14:45:17.134Z,97886.34
2023-04-02T14:48:00.753Z,97894.50
2023-04-02T14:50:38.373Z,97901.53
2023-04-02T14:53:39.363Z,97909.66
2023-04-02T14:56:09.917Z,97925.00
2023-04-02T14:58:46.092Z,97937.31
2023-04-02T15:01:26.271Z,97943.13
2023-04-02T15:04:39.437Z,97943.19
2023-04-02T15:07:27.611Z,97938.50
2023-04-02T15:10:07.410Z,97925.00
2023-04-02T15:12:40.768Z,97929.22
2023-04-02T15:15:33.118Z,97929.25
2023-04-02T15:18:13.111Z,97938.72
2023-04-02T15:21:05.450Z,97942.31
2023-04-02T15:23:54.925Z,97944.34
2023-04-02T15:26:48.064Z,97950.38
2023-04-02T15:29:43.224Z,97954.41
2023-04-02T15:32:32.172Z,97957.63
2023-04-02T15:35:27.439Z,97967.69
2023-04-02T15:38:19.086Z,97963.13
2023-04-02T15:41:23.792Z,97963.72
2023-04-02T15:44:16.815Z,97968.53
2023-04-02T15:47:11.923Z,97970.69
2023-04-02T15:50:19.620Z,97974.44
2023-04-02T15:53:10.069Z,97974.03
2023-04-02T15:55:54.541Z,97980.91
2023-04-02T15:59:22.784Z,97975.66
2023-04-02T16:02:20.358Z,97983.53
2023-04-02T16:05:03.608Z,97981.59
2023-04-02T16:08:04.918Z,97986.25
2023-04-02T16:10:41.826Z,97983.44
2023-04-02T16:13:35.814Z,97987.69
2023-04-02T16:16:12.364Z,97998.50
2023-04-02T16:19:16.757Z,98000.13
2023-04-02T16:21:58.965Z,98001.56
2023-04-02T16:24:26.369Z,97997.13
2023-04-02T16:27:14.847Z,98001.38
2023-04-02T16:30:05.790Z,97999.94
2023-04-02T16:32:44.804Z,97998.09
2023-04-02T16:35:56.851Z,98010.81
2023-04-02T16:38:58.904Z,98009.97
2023-04-02T16:42:10.235Z,98021.03
2023-04-02T16:44:51.757Z,98021.63
2023-04-02T16:47:53.309Z,98029.88
2023-04-02T16:50:57.219Z,98029.41
2023-04-02T16:54:12.182Z,98042.59
2023-04-02T16:57:15.066Z,98041.91
2023-04-02T17:00:06.558Z,98052.78
2023-04-02T17:03:30.561Z,98053.44
2023-04-02T17:06:32.878Z,98054.13
2023-04-02T17:09:17.975Z,98063.16
2023-04-02T17:11:55.115Z,98058.28
2023-04-02T17:14:33.108Z,98065.69
2023-04-02T17:17:05.526Z,98070.88
2023-04-02T17:19:33.460Z,98067.59
2023-04-02T17:22:05.716Z,98073.19
2023-04-02T17:24:42.925Z,98071.13
2023-04-02T17:27:41.022Z,98068.44
2023-04-02T17:30:19.726Z,98071.41
2023-04-02T17:32:47.540Z,98070.19
2023-04-02T17:35:32.185Z,98066.97
2023-04-02T17:38:15.094Z,98075.16
2023-04-02T17:41:06.983Z,98086.41
2023-04-02T17:44:17.651Z,98086.63
2023-04-02T17:47:23.147Z,98086.16
2023-04-02T17:50:12.329Z,98088.94
2023-04-02T17:52:53.356Z,98099.94
2023-04-02T17:55:50.555Z,98102.69
2023-04-02T17:58:50.598Z,98105.06
2023-04-02T18:01:30.168Z,98099.16
2023-04-02T18:04:16.090Z,98122.59
2023-04-02T18:06:58.243Z,98115.88
2023-04-02T18:09:45.599Z,98114.56
2023-04-02T18:12:45.435Z,98118.44
2023-04-02T18:15:55.484Z,98111.75
2023-04-02T18:18:40.835Z,98115.91
2023-04-02T18:21:37.527Z,98113.28
2023-04-02T18:24:24.645Z,98120.31
2023-04-02T18:27:25.719Z,98125.16
2023-04-02T18:30:16.339Z,98120.38
2023-04-02T18:33:03.922Z,98130.63
2023-04-02T18:35:39.499Z,98123.19
2023-04-02T18:38:29.316Z,98132.38
2023-04-02T18:41:56.392Z,98131.91
2023-04-02T18:44:51.200Z,98150.47
2023-04-02T18:47:40.561Z,98144.72
2023-04-02T18:50:35.232Z,98153.28
2023-04-02T18:53:15.408Z,98154.97
2023-04-02T18:55:54.090Z,98159.56
2023-04-02T18:58:49.462Z,98156.22
2023-04-02T19:01:37.507Z,98150.13
2023-04-02T19:04:11.168Z,98160.75
2023-04-02T19:06:46.027Z,98160.06
2023-04-02T19:09:29.643Z,98157.94
2023-04-02T19:11:57.286Z,98164.63
2023-04-02T19:14:25.675Z,98167.94
2023-04-02T19:17:21.571Z,98169.53
2023-04-02T19:20:17.063Z,98179.88
2023-04-02T19:22:50.796Z,98181.28
2023-04-02T19:26:05.047Z,98185.41
2023-04-02T19:28:57.518Z,98181.91
2023-04-02T19:32:06.493Z,98188.66
2023-04-02T19:34:53.810Z,98181.09
2023-04-02T19:37:54.490Z,98186.22
2023-04-02T19:40:59.265Z,98177.41
2023-04-02T19:43:26.848Z,98180.00
2023-04-02T19:45:54.630Z,98185.88
2023-04-02T19:48:27.533Z,98180.47
2023-04-02T19:50:55.038Z,98183.53
2023-04-02T19:53:22.640Z,98179.59
2023-04-02T19:55:51.190Z,98180.25
2023-04-02T19:58:32.033Z,98182.69
2023-04-02T20:01:00.561Z,98182.94
2023-04-02T20:03:30.856Z,98181.50
2023-04-02T20:05:59.908Z,98179.69
2023-04-02T20:08:28.702Z,98185.09
2023-04-02T20:10:58.738Z,98181.88
2023-04-02T20:13:26.434Z,98185.09
2023-04-02T20:15:54.564Z,98181.69
2023-04-02T20:18:22.023Z,98189.97
2023-04-02T20:20:49.884Z,98189.78
2023-04-02T20:23:17.615Z,98190.22
2023-04-02T20:25:47.406Z,98189.25
2023-04-02T20:28:14.784Z,98190.84
2023-04-02T20:30:42.226Z,98195.25
2023-04-02T20:33:09.971Z,98199.66
2023-04-02T20:35:37.867Z,98199.28
2023-04-02T20:38:07.568Z,98199.94
2023-04-02T20:40:35.890Z,98196.16
2023-04-02T20:43:03.577Z,98199.22
2023-04-02T20:45:31.306Z,98200.84
2023-04-02T20:47:58.880Z,98198.03
2023-04-02T20:50:26.765Z,98197.03
2023-04-02T20:52:54.816Z,98196.88
2023-04-02T20:55:22.343Z,98205.94
2023-04-02T20:57:49.777Z,98200.72
2023-04-02T21:00:17.785Z,98202.53
2023-04-02T21:02:45.517Z,98201.09
2023-04-02T21:05:13.015Z,98199.50
2023-04-02T21:07:40.651Z,98200.84
2023-04-02T21:10:08.626Z,98202.03
2023-04-02T21:12:36.064Z,98198.94
2023-04-02T21:15:03.644Z,98199.28
2023-04-02T21:17:31.276Z,98210.38
2023-04-02T21:19:58.655Z,98207.91
2023-04-02T21:22:26.191Z,98207.38
2023-04-02T21:24:53.594Z,98214.59
2023-04-02T21:27:25.579Z,98209.38
2023-04-02T21:29:53.071Z,98208.56
2023-04-02T21:32:21.968Z,98200.28
2023-04-02T21:34:49.779Z,98201.28
2023-04-02T21:37:17.350Z,98215.31
2023-04-02T21:39:44.749Z,98210.09
2023-04-02T21:42:13.805Z,98206.50
2023-04-02T21:44:41.240Z,98202.44
2023-04-02T21:47:08.659Z,98213.06
2023-04-02T21:49:36.353Z,98220.06
2023-04-02T21:52:03.732Z,98208.81
2023-04-02T21:54:31.211Z,98221.06
2023-04-02T21:56:58.644Z,98208.63
2023-04-02T21:59:26.338Z,98207.84
2023-04-02T22:01:54.377Z,98218.25
2023-04-02T22:04:25.519Z,98208.03
2023-04-02T22:06:54.009Z,98211.44
2023-04-02T22:09:25.076Z,98218.44
2023-04-02T22:11:59.151Z,98211.63
2023-04-02T22:14:27.635Z,98213.97
2023-04-02T22:16:55.589Z,98222.31
2023-04-02T22:19:23.218Z,98220.00
2023-04-02T22:21:50.723Z,98227.03
2023-04-02T22:24:19.190Z,98223.59
2023-04-02T22:26:46.623Z,98220.91
2023-04-02T22:29:14.904Z,98218.50
2023-04-02T22:31:42.733Z,98214.59
2023-04-02T22:34:10.344Z,98206.97
2023-04-02T22:36:37.759Z,98210.38
2023-04-02T22:39:09.572Z,98209.59
2023-04-02T22:41:37.256Z,98212.00
2023-04-02T22:44:04.895Z,98215.22
2023-04-02T22:46:32.363Z,98217.41
2023-04-02T22:48:59.865Z,98221.97
2023-04-02T22:51:27.976Z,98218.53
2023-04-02T22:53:57.148Z,98222.44
2023-04-02T22:56:31.715Z,98220.56
2023-04-02T22:58:59.667Z,98214.63
2023-04-02T23:01:34.412Z,98224.56
2023-04-02T23:04:02.232Z,98233.09
2023-04-02T23:06:29.703Z,98228.34
2023-04-02T23:08:57.519Z,98220.16
2023-04-02T23:11:27.752Z,98221.78
2023-04-02T23:13:58.156Z,98212.25
2023-04-02T23:16:29.007Z,98214.69
2023-04-02T23:18:57.520Z,98210.25
2023-04-02T23:21:26.266Z,98206.41
2023-04-02T23:23:54.996Z,98212.19
2023-04-02T23:26:31.465Z,98203.88
2023-04-02T23:29:00.865Z,98209.81
2023-04-02T23:31:28.820Z,98205.47
2023-04-02T23:33:56.373Z,98207.97
2023-04-02T23:36:30.418Z,98203.66
2023-04-02T23:39:04.050Z,98210.72
2023-04-02T23:41:31.626Z,98210.00
2023-04-02T23:43:59.355Z,98208.72
2023-04-02T23:46:28.883Z,98212.50
2023-04-02T23:48:57.452Z,98217.72
2023-04-02T23:51:25.549Z,98211.16
2023-04-02T23:53:55.460Z,98215.84
2023-04-02T23:56:23.615Z,98216.66
2023-04-02T23:58:51.789Z,98217.31
